Ulm, Arkansas
Current Conditions -  °F | °C
As of 9:55 PM on Friday 24 Oct 2014 (Local Time) from KSGT Reporting Station
Clear Clear  
Wind Chill: 63°   Ceiling: Unl
Heat Index: 63°   Visibility: 10mi
Dew Point: 54°   Wind: 6mph
Humidity: 72%   Direction: 200°SSW
Pressure: 30.11"   Gusts: NA
Location:  34.58°N, 91.46°W
Report Text: KSGT 250255Z AUTO 20005KT 10SM CLR 17/12 A3011 RMK AO1 52003
Loading
Personal Weather Stations






























Interactive Weather Map
Tropical Storm Tracking
New forecast layout! Learn more

10-Day Weather Forecast

Advertisements
Track Severe Weather on mobile